sensor_id;sensor_type;location;lat;lon;timestamp;temperature;humidity
18041;DHT22;9145;48.588;9.250;2022-11-15T00:00:30;8.80;99.90
18041;DHT22;9145;48.588;9.250;2022-11-15T00:02:56;8.70;99.90
18041;DHT22;9145;48.588;9.250;2022-11-15T00:05:23;8.60;99.90
18041;DHT22;9145;48.588;9.250;2022-11-15T00:07:50;8.60;99.90
18041;DHT22;9145;48.588;9.250;2022-11-15T00:10:19;8.60;99.90
18041;DHT22;9145;48.588;9.250;2022-11-15T00:12:45;8.60;99.90
18041;DHT22;9145;48.588;9.250;2022-11-15T00:15:12;8.60;99.90
18041;DHT22;9145;48.588;9.250;2022-11-15T00:17:39;8.70;99.90
18041;DHT22;9145;48.588;9.250;2022-11-15T00:20:07;8.80;99.90
18041;DHT22;9145;48.588;9.250;2022-11-15T00:22:34;8.80;99.90
18041;DHT22;9145;48.588;9.250;2022-11-15T00:25:01;8.90;99.90
18041;DHT22;9145;48.588;9.250;2022-11-15T00:27:30;8.90;99.90
18041;DHT22;9145;48.588;9.250;2022-11-15T00:29:57;8.90;99.90
18041;DHT22;9145;48.588;9.250;2022-11-15T00:32:23;9.00;99.90
18041;DHT22;9145;48.588;9.250;2022-11-15T00:34:50;9.00;99.90
18041;DHT22;9145;48.588;9.250;2022-11-15T00:37:17;9.00;99.90
18041;DHT22;9145;48.588;9.250;2022-11-15T00:39:44;9.00;99.90
18041;DHT22;9145;48.588;9.250;2022-11-15T00:42:11;8.70;99.90
18041;DHT22;9145;48.588;9.250;2022-11-15T00:44:39;8.40;99.90
18041;DHT22;9145;48.588;9.250;2022-11-15T00:47:06;8.20;99.90
18041;DHT22;9145;48.588;9.250;2022-11-15T00:49:33;8.00;99.90
18041;DHT22;9145;48.588;9.250;2022-11-15T00:51:59;7.90;99.90
18041;DHT22;9145;48.588;9.250;2022-11-15T00:54:26;7.90;99.90
18041;DHT22;9145;48.588;9.250;2022-11-15T00:56:53;7.90;99.90
18041;DHT22;9145;48.588;9.250;2022-11-15T00:59:20;7.90;99.90
18041;DHT22;9145;48.588;9.250;2022-11-15T01:01:48;7.90;99.90
18041;DHT22;9145;48.588;9.250;2022-11-15T01:04:15;7.90;99.90
18041;DHT22;9145;48.588;9.250;2022-11-15T01:06:42;7.80;99.90
18041;DHT22;9145;48.588;9.250;2022-11-15T01:09:09;7.60;99.90
18041;DHT22;9145;48.588;9.250;2022-11-15T01:11:36;7.50;99.90
18041;DHT22;9145;48.588;9.250;2022-11-15T01:14:02;7.60;99.90
18041;DHT22;9145;48.588;9.250;2022-11-15T01:16:29;7.50;99.90
18041;DHT22;9145;48.588;9.250;2022-11-15T01:18:59;7.40;99.90
18041;DHT22;9145;48.588;9.250;2022-11-15T01:21:27;7.20;99.90
18041;DHT22;9145;48.588;9.250;2022-11-15T01:23:54;7.30;99.90
18041;DHT22;9145;48.588;9.250;2022-11-15T01:26:22;7.20;99.90
18041;DHT22;9145;48.588;9.250;2022-11-15T01:28:50;7.10;99.90
18041;DHT22;9145;48.588;9.250;2022-11-15T01:31:18;7.10;99.90
18041;DHT22;9145;48.588;9.250;2022-11-15T01:33:46;7.10;99.90
18041;DHT22;9145;48.588;9.250;2022-11-15T01:36:16;7.10;99.90
18041;DHT22;9145;48.588;9.250;2022-11-15T01:38:43;7.10;99.90
18041;DHT22;9145;48.588;9.250;2022-11-15T01:41:16;7.20;99.90
18041;DHT22;9145;48.588;9.250;2022-11-15T01:43:43;7.30;99.90
18041;DHT22;9145;48.588;9.250;2022-11-15T01:46:23;7.40;99.90
18041;DHT22;9145;48.588;9.250;2022-11-15T01:48:52;7.40;99.90
18041;DHT22;9145;48.588;9.250;2022-11-15T01:51:23;7.40;99.90
18041;DHT22;9145;48.588;9.250;2022-11-15T01:53:54;7.30;99.90
18041;DHT22;9145;48.588;9.250;2022-11-15T01:56:25;7.10;99.90
18041;DHT22;9145;48.588;9.250;2022-11-15T01:58:56;7.00;99.90
18041;DHT22;9145;48.588;9.250;2022-11-15T02:01:24;6.90;99.90
18041;DHT22;9145;48.588;9.250;2022-11-15T02:03:55;6.90;99.90
18041;DHT22;9145;48.588;9.250;2022-11-15T02:06:25;7.00;99.90
18041;DHT22;9145;48.588;9.250;2022-11-15T02:08:52;7.00;99.90
18041;DHT22;9145;48.588;9.250;2022-11-15T02:11:19;7.00;99.90
18041;DHT22;9145;48.588;9.250;2022-11-15T02:13:46;6.90;99.90
18041;DHT22;9145;48.588;9.250;2022-11-15T02:16:20;6.90;99.90
18041;DHT22;9145;48.588;9.250;2022-11-15T02:18:55;6.70;99.90
18041;DHT22;9145;48.588;9.250;2022-11-15T02:21:30;6.60;99.90
18041;DHT22;9145;48.588;9.250;2022-11-15T02:24:35;6.70;99.90
18041;DHT22;9145;48.588;9.250;2022-11-15T02:27:38;6.70;99.90
18041;DHT22;9145;48.588;9.250;2022-11-15T02:30:22;6.60;99.90
18041;DHT22;9145;48.588;9.250;2022-11-15T02:32:53;6.50;99.90
18041;DHT22;9145;48.588;9.250;2022-11-15T02:35:29;6.40;99.90
18041;DHT22;9145;48.588;9.250;2022-11-15T02:38:04;6.50;99.90
18041;DHT22;9145;48.588;9.250;2022-11-15T02:40:41;6.70;99.90
18041;DHT22;9145;48.588;9.250;2022-11-15T02:43:14;6.80;99.90
18041;DHT22;9145;48.588;9.250;2022-11-15T02:46:08;6.90;99.90
18041;DHT22;9145;48.588;9.250;2022-11-15T02:48:36;6.80;99.90
18041;DHT22;9145;48.588;9.250;2022-11-15T02:51:04;6.70;99.90
18041;DHT22;9145;48.588;9.250;2022-11-15T02:53:31;6.50;99.90
18041;DHT22;9145;48.588;9.250;2022-11-15T02:55:58;6.40;99.90
18041;DHT22;9145;48.588;9.250;2022-11-15T03:01:38;6.30;99.90
18041;DHT22;9145;48.588;9.250;2022-11-15T03:04:19;6.40;99.90
18041;DHT22;9145;48.588;9.250;2022-11-15T03:06:52;6.40;99.90
18041;DHT22;9145;48.588;9.250;2022-11-15T03:09:27;6.40;99.90
18041;DHT22;9145;48.588;9.250;2022-11-15T03:12:01;6.40;99.90
18041;DHT22;9145;48.588;9.250;2022-11-15T03:14:32;6.40;99.90
18041;DHT22;9145;48.588;9.250;2022-11-15T03:17:09;6.60;99.90
18041;DHT22;9145;48.588;9.250;2022-11-15T03:19:44;6.60;99.90
18041;DHT22;9145;48.588;9.250;2022-11-15T03:22:15;6.60;99.90
18041;DHT22;9145;48.588;9.250;2022-11-15T03:24:44;6.60;99.90
18041;DHT22;9145;48.588;9.250;2022-11-15T03:27:14;6.70;99.90
18041;DHT22;9145;48.588;9.250;2022-11-15T03:29:46;6.60;99.90
18041;DHT22;9145;48.588;9.250;2022-11-15T03:32:17;6.50;99.90
18041;DHT22;9145;48.588;9.250;2022-11-15T03:34:49;6.50;99.90
18041;DHT22;9145;48.588;9.250;2022-11-15T03:37:22;6.40;99.90
18041;DHT22;9145;48.588;9.250;2022-11-15T03:39:50;6.40;99.90
18041;DHT22;9145;48.588;9.250;2022-11-15T03:42:21;6.40;99.90
18041;DHT22;9145;48.588;9.250;2022-11-15T03:44:54;6.40;99.90
18041;DHT22;9145;48.588;9.250;2022-11-15T03:47:29;6.50;99.90
18041;DHT22;9145;48.588;9.250;2022-11-15T03:50:01;6.60;99.90
18041;DHT22;9145;48.588;9.250;2022-11-15T03:52:32;6.70;99.90
18041;DHT22;9145;48.588;9.250;2022-11-15T03:55:01;6.80;99.90
18041;DHT22;9145;48.588;9.250;2022-11-15T03:57:29;6.80;99.90
18041;DHT22;9145;48.588;9.250;2022-11-15T03:59:56;6.90;99.90
18041;DHT22;9145;48.588;9.250;2022-11-15T04:02:24;6.90;99.90
18041;DHT22;9145;48.588;9.250;2022-11-15T04:04:51;6.70;99.90
18041;DHT22;9145;48.588;9.250;2022-11-15T04:07:18;6.80;99.90
18041;DHT22;9145;48.588;9.250;2022-11-15T04:09:45;6.90;99.90
18041;DHT22;9145;48.588;9.250;2022-11-15T04:12:31;6.80;99.90
18041;DHT22;9145;48.588;9.250;2022-11-15T04:15:03;6.70;99.90
18041;DHT22;9145;48.588;9.250;2022-11-15T04:17:40;6.60;99.90
18041;DHT22;9145;48.588;9.250;2022-11-15T04:20:09;6.80;99.90
18041;DHT22;9145;48.588;9.250;2022-11-15T04:22:55;6.90;99.90
18041;DHT22;9145;48.588;9.250;2022-11-15T04:25:41;7.00;99.90
18041;DHT22;9145;48.588;9.250;2022-11-15T04:28:08;7.00;99.90
18041;DHT22;9145;48.588;9.250;2022-11-15T04:30:35;6.80;99.90
18041;DHT22;9145;48.588;9.250;2022-11-15T04:33:03;6.60;99.90
18041;DHT22;9145;48.588;9.250;2022-11-15T04:35:30;6.40;99.90
18041;DHT22;9145;48.588;9.250;2022-11-15T04:37:58;6.30;99.90
18041;DHT22;9145;48.588;9.250;2022-11-15T04:40:24;6.20;99.90
18041;DHT22;9145;48.588;9.250;2022-11-15T04:42:51;6.20;99.90
18041;DHT22;9145;48.588;9.250;2022-11-15T04:45:18;6.20;99.90
18041;DHT22;9145;48.588;9.250;2022-11-15T04:47:45;6.20;99.90
18041;DHT22;9145;48.588;9.250;2022-11-15T04:50:14;6.10;99.90
18041;DHT22;9145;48.588;9.250;2022-11-15T04:52:43;6.00;99.90
18041;DHT22;9145;48.588;9.250;2022-11-15T04:55:10;6.00;99.90
18041;DHT22;9145;48.588;9.250;2022-11-15T04:57:37;5.90;99.90
18041;DHT22;9145;48.588;9.250;2022-11-15T05:00:06;5.80;99.90
18041;DHT22;9145;48.588;9.250;2022-11-15T05:02:34;5.70;99.90
18041;DHT22;9145;48.588;9.250;2022-11-15T05:05:20;5.70;99.90
18041;DHT22;9145;48.588;9.250;2022-11-15T05:07:46;5.80;99.90
18041;DHT22;9145;48.588;9.250;2022-11-15T05:10:13;5.80;99.90
18041;DHT22;9145;48.588;9.250;2022-11-15T05:12:40;5.70;99.90
18041;DHT22;9145;48.588;9.250;2022-11-15T05:15:08;5.70;99.90
18041;DHT22;9145;48.588;9.250;2022-11-15T05:17:35;5.70;99.90
18041;DHT22;9145;48.588;9.250;2022-11-15T05:20:02;5.70;99.90
18041;DHT22;9145;48.588;9.250;2022-11-15T05:22:30;5.80;99.90
18041;DHT22;9145;48.588;9.250;2022-11-15T05:24:57;5.90;99.90
18041;DHT22;9145;48.588;9.250;2022-11-15T05:27:24;6.00;99.90
18041;DHT22;9145;48.588;9.250;2022-11-15T05:29:51;6.20;99.90
18041;DHT22;9145;48.588;9.250;2022-11-15T05:32:18;6.30;99.90
18041;DHT22;9145;48.588;9.250;2022-11-15T05:34:45;6.30;99.90
18041;DHT22;9145;48.588;9.250;2022-11-15T05:37:12;6.40;99.90
18041;DHT22;9145;48.588;9.250;2022-11-15T05:39:40;6.40;99.90
18041;DHT22;9145;48.588;9.250;2022-11-15T05:42:10;6.30;99.90
18041;DHT22;9145;48.588;9.250;2022-11-15T05:44:40;6.20;99.90
18041;DHT22;9145;48.588;9.250;2022-11-15T05:47:10;6.10;99.90
18041;DHT22;9145;48.588;9.250;2022-11-15T05:49:40;6.10;99.90
18041;DHT22;9145;48.588;9.250;2022-11-15T05:52:11;6.10;99.90
18041;DHT22;9145;48.588;9.250;2022-11-15T05:54:41;6.10;99.90
18041;DHT22;9145;48.588;9.250;2022-11-15T05:57:09;6.10;99.90
18041;DHT22;9145;48.588;9.250;2022-11-15T05:59:36;6.00;99.90
18041;DHT22;9145;48.588;9.250;2022-11-15T06:02:03;6.10;99.90
18041;DHT22;9145;48.588;9.250;2022-11-15T06:04:30;6.00;99.90
18041;DHT22;9145;48.588;9.250;2022-11-15T06:06:58;6.00;99.90
18041;DHT22;9145;48.588;9.250;2022-11-15T06:09:25;6.00;99.90
18041;DHT22;9145;48.588;9.250;2022-11-15T06:11:53;6.10;99.90
18041;DHT22;9145;48.588;9.250;2022-11-15T06:14:20;6.10;99.90
18041;DHT22;9145;48.588;9.250;2022-11-15T06:16:47;6.00;99.90
18041;DHT22;9145;48.588;9.250;2022-11-15T06:19:14;6.00;99.90
18041;DHT22;9145;48.588;9.250;2022-11-15T06:21:41;5.90;99.90
18041;DHT22;9145;48.588;9.250;2022-11-15T06:24:08;5.70;99.90
18041;DHT22;9145;48.588;9.250;2022-11-15T06:26:35;5.70;99.90
18041;DHT22;9145;48.588;9.250;2022-11-15T06:29:04;5.70;99.90
18041;DHT22;9145;48.588;9.250;2022-11-15T06:31:31;5.60;99.90
18041;DHT22;9145;48.588;9.250;2022-11-15T06:33:58;5.60;99.90
18041;DHT22;9145;48.588;9.250;2022-11-15T06:36:24;5.60;99.90
18041;DHT22;9145;48.588;9.250;2022-11-15T06:38:52;5.60;99.90
18041;DHT22;9145;48.588;9.250;2022-11-15T06:41:18;5.70;99.90
18041;DHT22;9145;48.588;9.250;2022-11-15T06:43:46;5.70;99.90
18041;DHT22;9145;48.588;9.250;2022-11-15T06:46:14;5.80;99.90
18041;DHT22;9145;48.588;9.250;2022-11-15T06:48:41;5.80;99.90
18041;DHT22;9145;48.588;9.250;2022-11-15T06:51:08;5.80;99.90
18041;DHT22;9145;48.588;9.250;2022-11-15T06:53:35;5.70;99.90
18041;DHT22;9145;48.588;9.250;2022-11-15T06:56:04;5.70;99.90
18041;DHT22;9145;48.588;9.250;2022-11-15T06:58:32;5.80;99.90
18041;DHT22;9145;48.588;9.250;2022-11-15T07:00:59;5.80;99.90
18041;DHT22;9145;48.588;9.250;2022-11-15T07:03:28;5.80;99.90
18041;DHT22;9145;48.588;9.250;2022-11-15T07:05:56;6.00;99.90
18041;DHT22;9145;48.588;9.250;2022-11-15T07:08:26;6.30;99.90
18041;DHT22;9145;48.588;9.250;2022-11-15T07:10:53;6.30;99.90
18041;DHT22;9145;48.588;9.250;2022-11-15T07:13:19;6.40;99.90
18041;DHT22;9145;48.588;9.250;2022-11-15T07:15:46;6.60;99.90
18041;DHT22;9145;48.588;9.250;2022-11-15T07:18:13;6.60;99.90
18041;DHT22;9145;48.588;9.250;2022-11-15T07:20:42;6.60;99.90
18041;DHT22;9145;48.588;9.250;2022-11-15T07:23:09;6.60;99.90
18041;DHT22;9145;48.588;9.250;2022-11-15T07:25:35;6.60;99.90
18041;DHT22;9145;48.588;9.250;2022-11-15T07:28:03;6.70;99.90
18041;DHT22;9145;48.588;9.250;2022-11-15T07:30:30;6.70;99.90
18041;DHT22;9145;48.588;9.250;2022-11-15T07:32:58;6.70;99.90
18041;DHT22;9145;48.588;9.250;2022-11-15T07:35:27;6.70;99.90
18041;DHT22;9145;48.588;9.250;2022-11-15T07:37:56;6.70;99.90
18041;DHT22;9145;48.588;9.250;2022-11-15T07:40:24;6.70;99.90
18041;DHT22;9145;48.588;9.250;2022-11-15T07:42:50;6.80;99.90
18041;DHT22;9145;48.588;9.250;2022-11-15T07:45:22;7.00;99.90
18041;DHT22;9145;48.588;9.250;2022-11-15T07:47:51;7.00;99.90
18041;DHT22;9145;48.588;9.250;2022-11-15T07:50:18;7.10;99.90
18041;DHT22;9145;48.588;9.250;2022-11-15T07:52:45;7.10;99.90
18041;DHT22;9145;48.588;9.250;2022-11-15T07:55:13;7.10;99.90
18041;DHT22;9145;48.588;9.250;2022-11-15T07:57:40;7.20;99.90
18041;DHT22;9145;48.588;9.250;2022-11-15T08:00:08;7.40;99.90
18041;DHT22;9145;48.588;9.250;2022-11-15T08:02:35;7.60;99.90
18041;DHT22;9145;48.588;9.250;2022-11-15T08:05:02;7.80;99.90
18041;DHT22;9145;48.588;9.250;2022-11-15T08:07:29;7.80;99.90
18041;DHT22;9145;48.588;9.250;2022-11-15T08:09:57;7.90;99.90
18041;DHT22;9145;48.588;9.250;2022-11-15T08:12:25;8.00;99.90
18041;DHT22;9145;48.588;9.250;2022-11-15T08:14:52;8.00;99.90
18041;DHT22;9145;48.588;9.250;2022-11-15T08:17:19;7.90;99.90
18041;DHT22;9145;48.588;9.250;2022-11-15T08:19:45;8.00;99.90
18041;DHT22;9145;48.588;9.250;2022-11-15T08:22:13;8.10;99.90
18041;DHT22;9145;48.588;9.250;2022-11-15T08:24:40;8.20;99.90
18041;DHT22;9145;48.588;9.250;2022-11-15T08:27:07;8.40;99.90
18041;DHT22;9145;48.588;9.250;2022-11-15T08:29:42;8.30;99.90
18041;DHT22;9145;48.588;9.250;2022-11-15T08:32:09;8.20;99.90
18041;DHT22;9145;48.588;9.250;2022-11-15T08:34:36;8.20;99.90
18041;DHT22;9145;48.588;9.250;2022-11-15T08:37:03;8.10;99.90
18041;DHT22;9145;48.588;9.250;2022-11-15T08:39:31;8.00;99.90
18041;DHT22;9145;48.588;9.250;2022-11-15T08:41:58;8.10;99.90
18041;DHT22;9145;48.588;9.250;2022-11-15T08:44:24;8.10;99.90
18041;DHT22;9145;48.588;9.250;2022-11-15T08:46:53;8.10;99.90
18041;DHT22;9145;48.588;9.250;2022-11-15T08:49:20;8.20;99.90
18041;DHT22;9145;48.588;9.250;2022-11-15T08:51:46;8.40;99.90
18041;DHT22;9145;48.588;9.250;2022-11-15T08:54:13;8.60;99.90
18041;DHT22;9145;48.588;9.250;2022-11-15T08:56:40;8.70;99.90
18041;DHT22;9145;48.588;9.250;2022-11-15T08:59:07;8.90;99.90
18041;DHT22;9145;48.588;9.250;2022-11-15T09:01:34;9.00;99.90
18041;DHT22;9145;48.588;9.250;2022-11-15T09:04:03;8.90;99.90
18041;DHT22;9145;48.588;9.250;2022-11-15T09:06:30;8.80;99.90
18041;DHT22;9145;48.588;9.250;2022-11-15T09:08:57;8.70;99.90
18041;DHT22;9145;48.588;9.250;2022-11-15T09:11:24;8.70;99.90
18041;DHT22;9145;48.588;9.250;2022-11-15T09:13:52;8.70;99.90
18041;DHT22;9145;48.588;9.250;2022-11-15T09:16:18;8.70;99.90
18041;DHT22;9145;48.588;9.250;2022-11-15T09:18:45;8.70;99.90
18041;DHT22;9145;48.588;9.250;2022-11-15T09:21:13;8.80;99.90
18041;DHT22;9145;48.588;9.250;2022-11-15T09:23:40;8.90;99.90
18041;DHT22;9145;48.588;9.250;2022-11-15T09:26:07;9.00;99.90
18041;DHT22;9145;48.588;9.250;2022-11-15T09:28:35;9.10;99.90
18041;DHT22;9145;48.588;9.250;2022-11-15T09:31:04;9.10;99.90
18041;DHT22;9145;48.588;9.250;2022-11-15T09:33:31;9.10;99.90
18041;DHT22;9145;48.588;9.250;2022-11-15T09:36:00;9.20;99.90
18041;DHT22;9145;48.588;9.250;2022-11-15T09:38:29;9.20;99.90
18041;DHT22;9145;48.588;9.250;2022-11-15T09:41:22;9.20;99.90
18041;DHT22;9145;48.588;9.250;2022-11-15T09:43:58;9.30;99.90
18041;DHT22;9145;48.588;9.250;2022-11-15T09:46:36;9.40;99.90
18041;DHT22;9145;48.588;9.250;2022-11-15T09:49:04;9.60;99.90
18041;DHT22;9145;48.588;9.250;2022-11-15T09:51:34;9.60;99.90
18041;DHT22;9145;48.588;9.250;2022-11-15T09:54:13;9.60;99.90
18041;DHT22;9145;48.588;9.250;2022-11-15T09:56:44;9.70;99.90
18041;DHT22;9145;48.588;9.250;2022-11-15T09:59:27;9.80;99.90
18041;DHT22;9145;48.588;9.250;2022-11-15T10:02:00;10.00;99.90
18041;DHT22;9145;48.588;9.250;2022-11-15T10:04:29;10.20;99.90
18041;DHT22;9145;48.588;9.250;2022-11-15T10:07:01;10.40;99.90
18041;DHT22;9145;48.588;9.250;2022-11-15T10:09:34;10.50;99.90
18041;DHT22;9145;48.588;9.250;2022-11-15T10:12:03;10.50;99.90
18041;DHT22;9145;48.588;9.250;2022-11-15T10:14:31;10.50;99.90
18041;DHT22;9145;48.588;9.250;2022-11-15T10:17:33;10.50;99.90
18041;DHT22;9145;48.588;9.250;2022-11-15T10:20:11;10.50;99.90
18041;DHT22;9145;48.588;9.250;2022-11-15T10:22:43;10.60;99.90
18041;DHT22;9145;48.588;9.250;2022-11-15T10:25:20;10.80;99.90
18041;DHT22;9145;48.588;9.250;2022-11-15T10:27:53;10.90;99.90
18041;DHT22;9145;48.588;9.250;2022-11-15T10:30:20;11.00;99.90
18041;DHT22;9145;48.588;9.250;2022-11-15T10:32:48;11.10;99.90
18041;DHT22;9145;48.588;9.250;2022-11-15T10:35:18;11.20;99.90
18041;DHT22;9145;48.588;9.250;2022-11-15T10:37:45;11.20;99.90
18041;DHT22;9145;48.588;9.250;2022-11-15T10:40:18;11.20;99.90
18041;DHT22;9145;48.588;9.250;2022-11-15T10:42:45;11.20;99.90
18041;DHT22;9145;48.588;9.250;2022-11-15T10:45:26;11.30;99.90
18041;DHT22;9145;48.588;9.250;2022-11-15T10:48:23;11.30;99.90
18041;DHT22;9145;48.588;9.250;2022-11-15T10:50:52;11.30;99.90
18041;DHT22;9145;48.588;9.250;2022-11-15T10:53:38;11.30;99.90
18041;DHT22;9145;48.588;9.250;2022-11-15T10:56:13;11.40;99.90
18041;DHT22;9145;48.588;9.250;2022-11-15T10:58:42;11.50;99.90
18041;DHT22;9145;48.588;9.250;2022-11-15T11:01:15;11.60;99.90
18041;DHT22;9145;48.588;9.250;2022-11-15T11:03:43;11.60;99.90
18041;DHT22;9145;48.588;9.250;2022-11-15T11:06:13;11.70;99.90
18041;DHT22;9145;48.588;9.250;2022-11-15T11:08:52;11.70;99.90
18041;DHT22;9145;48.588;9.250;2022-11-15T11:11:21;11.70;99.90
18041;DHT22;9145;48.588;9.250;2022-11-15T11:13:48;11.70;99.90
18041;DHT22;9145;48.588;9.250;2022-11-15T11:16:38;11.80;99.90
18041;DHT22;9145;48.588;9.250;2022-11-15T11:22:04;11.80;99.90
18041;DHT22;9145;48.588;9.250;2022-11-15T11:24:36;11.90;99.90
18041;DHT22;9145;48.588;9.250;2022-11-15T11:27:17;12.00;99.90
18041;DHT22;9145;48.588;9.250;2022-11-15T11:29:57;12.00;99.90
18041;DHT22;9145;48.588;9.250;2022-11-15T11:32:36;12.10;99.90
18041;DHT22;9145;48.588;9.250;2022-11-15T11:35:13;12.10;99.90
18041;DHT22;9145;48.588;9.250;2022-11-15T11:37:56;12.20;99.90
18041;DHT22;9145;48.588;9.250;2022-11-15T11:40:32;12.30;99.90
18041;DHT22;9145;48.588;9.250;2022-11-15T11:43:10;12.50;99.90
18041;DHT22;9145;48.588;9.250;2022-11-15T11:46:01;12.60;99.90
18041;DHT22;9145;48.588;9.250;2022-11-15T11:48:41;12.70;99.90
18041;DHT22;9145;48.588;9.250;2022-11-15T11:51:13;12.90;99.90
18041;DHT22;9145;48.588;9.250;2022-11-15T11:53:47;13.00;99.90
18041;DHT22;9145;48.588;9.250;2022-11-15T11:56:22;13.10;99.90
18041;DHT22;9145;48.588;9.250;2022-11-15T11:58:53;13.10;99.90
18041;DHT22;9145;48.588;9.250;2022-11-15T12:01:23;13.10;99.90
18041;DHT22;9145;48.588;9.250;2022-11-15T12:03:55;13.10;99.90
18041;DHT22;9145;48.588;9.250;2022-11-15T12:06:30;13.00;99.90
18041;DHT22;9145;48.588;9.250;2022-11-15T12:09:01;12.90;99.90
18041;DHT22;9145;48.588;9.250;2022-11-15T12:11:32;12.90;99.90
18041;DHT22;9145;48.588;9.250;2022-11-15T12:14:08;12.80;99.90
18041;DHT22;9145;48.588;9.250;2022-11-15T12:16:40;12.90;99.90
18041;DHT22;9145;48.588;9.250;2022-11-15T12:19:08;12.90;99.90
18041;DHT22;9145;48.588;9.250;2022-11-15T12:21:39;12.90;99.90
18041;DHT22;9145;48.588;9.250;2022-11-15T12:24:13;13.00;99.90
18041;DHT22;9145;48.588;9.250;2022-11-15T12:26:45;13.10;99.90
18041;DHT22;9145;48.588;9.250;2022-11-15T12:29:20;13.10;99.90
18041;DHT22;9145;48.588;9.250;2022-11-15T12:31:52;13.10;99.90
18041;DHT22;9145;48.588;9.250;2022-11-15T12:34:40;13.10;99.90
18041;DHT22;9145;48.588;9.250;2022-11-15T12:40:30;12.90;99.90
18041;DHT22;9145;48.588;9.250;2022-11-15T12:46:12;12.90;99.90
18041;DHT22;9145;48.588;9.250;2022-11-15T12:48:58;13.00;99.90
18041;DHT22;9145;48.588;9.250;2022-11-15T12:54:52;13.00;99.90
18041;DHT22;9145;48.588;9.250;2022-11-15T12:57:35;13.00;99.90
18041;DHT22;9145;48.588;9.250;2022-11-15T13:02:49;13.20;99.90
18041;DHT22;9145;48.588;9.250;2022-11-15T13:05:51;13.30;99.90
18041;DHT22;9145;48.588;9.250;2022-11-15T13:08:38;13.30;99.90
18041;DHT22;9145;48.588;9.250;2022-11-15T13:11:41;13.30;99.90
18041;DHT22;9145;48.588;9.250;2022-11-15T13:17:32;13.40;99.90
18041;DHT22;9145;48.588;9.250;2022-11-15T13:20:22;13.40;99.90
18041;DHT22;9145;48.588;9.250;2022-11-15T13:22:50;13.40;99.90
18041;DHT22;9145;48.588;9.250;2022-11-15T13:25:20;13.50;99.90
18041;DHT22;9145;48.588;9.250;2022-11-15T13:27:51;13.50;99.90
18041;DHT22;9145;48.588;9.250;2022-11-15T13:30:21;13.50;99.90
18041;DHT22;9145;48.588;9.250;2022-11-15T13:32:50;13.50;99.90
18041;DHT22;9145;48.588;9.250;2022-11-15T13:35:21;13.60;99.90
18041;DHT22;9145;48.588;9.250;2022-11-15T13:37:49;13.60;99.90
18041;DHT22;9145;48.588;9.250;2022-11-15T13:40:22;13.60;99.90
18041;DHT22;9145;48.588;9.250;2022-11-15T13:42:49;13.60;99.90
18041;DHT22;9145;48.588;9.250;2022-11-15T13:45:18;13.50;99.90
18041;DHT22;9145;48.588;9.250;2022-11-15T13:47:50;13.50;99.90
18041;DHT22;9145;48.588;9.250;2022-11-15T13:50:20;13.50;99.90
18041;DHT22;9145;48.588;9.250;2022-11-15T13:52:48;13.40;99.90
18041;DHT22;9145;48.588;9.250;2022-11-15T13:55:17;13.40;99.90
18041;DHT22;9145;48.588;9.250;2022-11-15T13:57:46;13.40;99.90
18041;DHT22;9145;48.588;9.250;2022-11-15T14:00:32;13.40;99.90
18041;DHT22;9145;48.588;9.250;2022-11-15T14:03:07;13.40;99.90
18041;DHT22;9145;48.588;9.250;2022-11-15T14:05:35;13.40;99.90
18041;DHT22;9145;48.588;9.250;2022-11-15T14:08:05;13.40;99.90
18041;DHT22;9145;48.588;9.250;2022-11-15T14:10:39;13.40;99.90
18041;DHT22;9145;48.588;9.250;2022-11-15T14:13:26;13.30;99.90
18041;DHT22;9145;48.588;9.250;2022-11-15T14:15:53;13.30;99.90
18041;DHT22;9145;48.588;9.250;2022-11-15T14:18:39;13.20;99.90
18041;DHT22;9145;48.588;9.250;2022-11-15T14:21:08;13.10;99.90
18041;DHT22;9145;48.588;9.250;2022-11-15T14:23:36;13.20;99.90
18041;DHT22;9145;48.588;9.250;2022-11-15T14:26:02;13.10;99.90
18041;DHT22;9145;48.588;9.250;2022-11-15T14:28:31;13.10;99.90
18041;DHT22;9145;48.588;9.250;2022-11-15T14:31:10;12.90;99.90
18041;DHT22;9145;48.588;9.250;2022-11-15T14:33:38;12.90;99.90
18041;DHT22;9145;48.588;9.250;2022-11-15T14:36:10;12.90;99.90
18041;DHT22;9145;48.588;9.250;2022-11-15T14:38:38;12.90;99.90
18041;DHT22;9145;48.588;9.250;2022-11-15T14:41:04;13.00;99.90
18041;DHT22;9145;48.588;9.250;2022-11-15T14:43:32;12.80;99.90
18041;DHT22;9145;48.588;9.250;2022-11-15T14:45:59;12.80;99.90
18041;DHT22;9145;48.588;9.250;2022-11-15T14:48:25;12.80;99.90
18041;DHT22;9145;48.588;9.250;2022-11-15T14:50:52;12.80;99.90
18041;DHT22;9145;48.588;9.250;2022-11-15T14:53:20;12.80;99.90
18041;DHT22;9145;48.588;9.250;2022-11-15T14:55:47;12.80;99.90
18041;DHT22;9145;48.588;9.250;2022-11-15T14:58:14;12.80;99.90
18041;DHT22;9145;48.588;9.250;2022-11-15T15:00:41;12.80;99.90
18041;DHT22;9145;48.588;9.250;2022-11-15T15:03:08;12.80;99.90
18041;DHT22;9145;48.588;9.250;2022-11-15T15:05:37;12.80;99.90
18041;DHT22;9145;48.588;9.250;2022-11-15T15:08:05;12.80;99.90
18041;DHT22;9145;48.588;9.250;2022-11-15T15:10:36;12.80;99.90
18041;DHT22;9145;48.588;9.250;2022-11-15T15:13:04;12.80;99.90
18041;DHT22;9145;48.588;9.250;2022-11-15T15:15:32;12.80;99.90
18041;DHT22;9145;48.588;9.250;2022-11-15T15:17:59;12.70;99.90
18041;DHT22;9145;48.588;9.250;2022-11-15T15:20:26;12.80;99.90
18041;DHT22;9145;48.588;9.250;2022-11-15T15:22:54;12.80;99.90
18041;DHT22;9145;48.588;9.250;2022-11-15T15:25:23;12.70;99.90
18041;DHT22;9145;48.588;9.250;2022-11-15T15:27:54;12.70;99.90
18041;DHT22;9145;48.588;9.250;2022-11-15T15:30:21;12.50;99.90
18041;DHT22;9145;48.588;9.250;2022-11-15T15:32:48;12.50;99.90
18041;DHT22;9145;48.588;9.250;2022-11-15T15:35:16;12.40;99.90
18041;DHT22;9145;48.588;9.250;2022-11-15T15:37:45;12.40;99.90
18041;DHT22;9145;48.588;9.250;2022-11-15T15:40:14;12.40;99.90
18041;DHT22;9145;48.588;9.250;2022-11-15T15:42:42;12.40;99.90
18041;DHT22;9145;48.588;9.250;2022-11-15T15:45:11;12.40;99.90
18041;DHT22;9145;48.588;9.250;2022-11-15T15:47:38;12.40;99.90
18041;DHT22;9145;48.588;9.250;2022-11-15T15:50:17;12.40;99.90
18041;DHT22;9145;48.588;9.250;2022-11-15T15:52:46;12.40;99.90
18041;DHT22;9145;48.588;9.250;2022-11-15T15:55:13;12.40;99.90
18041;DHT22;9145;48.588;9.250;2022-11-15T15:57:40;12.40;99.90
18041;DHT22;9145;48.588;9.250;2022-11-15T16:00:08;12.40;99.90
18041;DHT22;9145;48.588;9.250;2022-11-15T16:02:37;12.40;99.90
18041;DHT22;9145;48.588;9.250;2022-11-15T16:05:04;12.40;99.90
18041;DHT22;9145;48.588;9.250;2022-11-15T16:07:31;12.40;99.90
18041;DHT22;9145;48.588;9.250;2022-11-15T16:09:58;12.30;99.90
18041;DHT22;9145;48.588;9.250;2022-11-15T16:12:29;12.30;99.90
18041;DHT22;9145;48.588;9.250;2022-11-15T16:14:56;12.30;99.90
18041;DHT22;9145;48.588;9.250;2022-11-15T16:17:25;12.30;99.90
18041;DHT22;9145;48.588;9.250;2022-11-15T16:19:53;12.20;99.90
18041;DHT22;9145;48.588;9.250;2022-11-15T16:22:20;12.20;99.90
18041;DHT22;9145;48.588;9.250;2022-11-15T16:24:47;12.20;99.90
18041;DHT22;9145;48.588;9.250;2022-11-15T16:27:15;12.20;99.90
18041;DHT22;9145;48.588;9.250;2022-11-15T16:29:42;12.20;99.90
18041;DHT22;9145;48.588;9.250;2022-11-15T16:32:09;12.20;99.90
18041;DHT22;9145;48.588;9.250;2022-11-15T16:34:36;12.20;99.90
18041;DHT22;9145;48.588;9.250;2022-11-15T16:37:05;12.10;99.90